sensor_id;sensor_type;location;lat;lon;timestamp;P1;durP1;ratioP1;P2;durP2;ratioP2
35562;SDS011;21665;40.108;18.302;2023-11-22T00:00:56;24.75;;;8.77;;
35562;SDS011;21665;40.108;18.302;2023-11-22T00:03:23;21.58;;;9.27;;
35562;SDS011;21665;40.108;18.302;2023-11-22T00:05:50;15.45;;;8.50;;
35562;SDS011;21665;40.108;18.302;2023-11-22T00:08:16;21.73;;;9.15;;
35562;SDS011;21665;40.108;18.302;2023-11-22T00:10:43;27.58;;;9.75;;
35562;SDS011;21665;40.108;18.302;2023-11-22T00:13:10;24.30;;;10.38;;
35562;SDS011;21665;40.108;18.302;2023-11-22T00:15:37;29.58;;;10.02;;
35562;SDS011;21665;40.108;18.302;2023-11-22T00:18:03;23.45;;;9.77;;
35562;SDS011;21665;40.108;18.302;2023-11-22T00:20:29;26.67;;;9.60;;
35562;SDS011;21665;40.108;18.302;2023-11-22T00:22:56;22.50;;;8.95;;
35562;SDS011;21665;40.108;18.302;2023-11-22T00:25:22;24.60;;;9.85;;
35562;SDS011;21665;40.108;18.302;2023-11-22T00:27:49;26.45;;;10.82;;
35562;SDS011;21665;40.108;18.302;2023-11-22T00:30:15;21.15;;;9.20;;
35562;SDS011;21665;40.108;18.302;2023-11-22T00:32:42;23.30;;;11.10;;
35562;SDS011;21665;40.108;18.302;2023-11-22T00:35:08;19.70;;;9.50;;
35562;SDS011;21665;40.108;18.302;2023-11-22T00:37:35;25.27;;;9.60;;
35562;SDS011;21665;40.108;18.302;2023-11-22T00:40:02;26.38;;;9.55;;
35562;SDS011;21665;40.108;18.302;2023-11-22T00:42:39;19.40;;;9.35;;
35562;SDS011;21665;40.108;18.302;2023-11-22T00:45:08;21.45;;;9.90;;
35562;SDS011;21665;40.108;18.302;2023-11-22T00:47:36;24.27;;;11.07;;
35562;SDS011;21665;40.108;18.302;2023-11-22T00:50:03;24.77;;;9.93;;
35562;SDS011;21665;40.108;18.302;2023-11-22T00:52:30;12.48;;;10.25;;
35562;SDS011;21665;40.108;18.302;2023-11-22T00:54:57;21.88;;;9.85;;
35562;SDS011;21665;40.108;18.302;2023-11-22T00:57:24;16.02;;;9.95;;
35562;SDS011;21665;40.108;18.302;2023-11-22T00:59:52;24.38;;;11.63;;
35562;SDS011;21665;40.108;18.302;2023-11-22T01:02:19;16.17;;;11.30;;
35562;SDS011;21665;40.108;18.302;2023-11-22T01:04:46;26.70;;;10.55;;
35562;SDS011;21665;40.108;18.302;2023-11-22T01:07:12;18.92;;;10.38;;
35562;SDS011;21665;40.108;18.302;2023-11-22T01:09:38;18.75;;;10.15;;
35562;SDS011;21665;40.108;18.302;2023-11-22T01:12:05;20.15;;;10.18;;
35562;SDS011;21665;40.108;18.302;2023-11-22T01:14:34;22.98;;;10.40;;
35562;SDS011;21665;40.108;18.302;2023-11-22T01:17:01;27.42;;;10.40;;
35562;SDS011;21665;40.108;18.302;2023-11-22T01:19:28;17.58;;;10.35;;
35562;SDS011;21665;40.108;18.302;2023-11-22T01:21:54;20.58;;;9.98;;
35562;SDS011;21665;40.108;18.302;2023-11-22T01:24:21;23.63;;;11.48;;
35562;SDS011;21665;40.108;18.302;2023-11-22T01:26:47;23.73;;;11.38;;
35562;SDS011;21665;40.108;18.302;2023-11-22T01:29:14;14.30;;;11.07;;
35562;SDS011;21665;40.108;18.302;2023-11-22T01:31:40;24.55;;;10.77;;
35562;SDS011;21665;40.108;18.302;2023-11-22T01:34:07;17.45;;;10.65;;
35562;SDS011;21665;40.108;18.302;2023-11-22T01:36:34;33.42;;;11.25;;
35562;SDS011;21665;40.108;18.302;2023-11-22T01:39:00;34.67;;;12.68;;
35562;SDS011;21665;40.108;18.302;2023-11-22T01:41:27;26.20;;;11.20;;
35562;SDS011;21665;40.108;18.302;2023-11-22T01:43:55;25.92;;;11.32;;
35562;SDS011;21665;40.108;18.302;2023-11-22T01:46:23;15.38;;;10.27;;
35562;SDS011;21665;40.108;18.302;2023-11-22T01:48:52;26.20;;;11.20;;
35562;SDS011;21665;40.108;18.302;2023-11-22T01:51:20;17.73;;;10.40;;
35562;SDS011;21665;40.108;18.302;2023-11-22T01:53:48;20.50;;;10.88;;
35562;SDS011;21665;40.108;18.302;2023-11-22T01:56:15;24.60;;;10.18;;
35562;SDS011;21665;40.108;18.302;2023-11-22T01:58:43;26.83;;;10.57;;
35562;SDS011;21665;40.108;18.302;2023-11-22T02:01:10;29.05;;;11.90;;
35562;SDS011;21665;40.108;18.302;2023-11-22T02:03:38;22.50;;;11.38;;
35562;SDS011;21665;40.108;18.302;2023-11-22T02:06:05;20.90;;;9.88;;
35562;SDS011;21665;40.108;18.302;2023-11-22T02:08:33;22.48;;;11.15;;
35562;SDS011;21665;40.108;18.302;2023-11-22T02:11:00;22.63;;;10.65;;
35562;SDS011;21665;40.108;18.302;2023-11-22T02:13:29;22.27;;;10.48;;
35562;SDS011;21665;40.108;18.302;2023-11-22T02:15:56;22.40;;;10.35;;
35562;SDS011;21665;40.108;18.302;2023-11-22T02:18:28;29.48;;;10.07;;
35562;SDS011;21665;40.108;18.302;2023-11-22T02:20:56;26.27;;;10.35;;
35562;SDS011;21665;40.108;18.302;2023-11-22T02:23:25;26.13;;;12.10;;
35562;SDS011;21665;40.108;18.302;2023-11-22T02:25:52;21.40;;;10.23;;
35562;SDS011;21665;40.108;18.302;2023-11-22T02:28:19;23.92;;;10.70;;
35562;SDS011;21665;40.108;18.302;2023-11-22T02:30:46;26.98;;;12.15;;
35562;SDS011;21665;40.108;18.302;2023-11-22T02:33:12;29.85;;;12.13;;
35562;SDS011;21665;40.108;18.302;2023-11-22T02:35:39;20.83;;;11.20;;
35562;SDS011;21665;40.108;18.302;2023-11-22T02:38:08;26.75;;;11.32;;
35562;SDS011;21665;40.108;18.302;2023-11-22T02:40:34;26.13;;;11.95;;
35562;SDS011;21665;40.108;18.302;2023-11-22T02:43:01;24.50;;;11.20;;
35562;SDS011;21665;40.108;18.302;2023-11-22T02:45:32;25.50;;;11.35;;
35562;SDS011;21665;40.108;18.302;2023-11-22T02:47:59;25.23;;;11.98;;
35562;SDS011;21665;40.108;18.302;2023-11-22T02:50:29;25.13;;;11.30;;
35562;SDS011;21665;40.108;18.302;2023-11-22T02:53:01;25.23;;;11.65;;
35562;SDS011;21665;40.108;18.302;2023-11-22T02:55:28;22.55;;;11.57;;
35562;SDS011;21665;40.108;18.302;2023-11-22T02:57:54;22.33;;;12.05;;
35562;SDS011;21665;40.108;18.302;2023-11-22T03:00:21;24.20;;;11.88;;
35562;SDS011;21665;40.108;18.302;2023-11-22T03:02:49;45.47;;;12.40;;
35562;SDS011;21665;40.108;18.302;2023-11-22T03:05:22;26.48;;;12.27;;
35562;SDS011;21665;40.108;18.302;2023-11-22T03:07:49;21.42;;;11.25;;
35562;SDS011;21665;40.108;18.302;2023-11-22T03:10:18;31.67;;;11.82;;
35562;SDS011;21665;40.108;18.302;2023-11-22T03:12:45;26.85;;;10.88;;
35562;SDS011;21665;40.108;18.302;2023-11-22T03:15:13;23.00;;;10.23;;
35562;SDS011;21665;40.108;18.302;2023-11-22T03:17:40;28.02;;;12.00;;
35562;SDS011;21665;40.108;18.302;2023-11-22T03:20:07;28.50;;;11.13;;
35562;SDS011;21665;40.108;18.302;2023-11-22T03:22:37;31.77;;;10.55;;
35562;SDS011;21665;40.108;18.302;2023-11-22T03:25:04;29.08;;;10.57;;
35562;SDS011;21665;40.108;18.302;2023-11-22T03:27:32;20.70;;;11.35;;
35562;SDS011;21665;40.108;18.302;2023-11-22T03:29:59;25.98;;;11.80;;
35562;SDS011;21665;40.108;18.302;2023-11-22T03:32:26;30.70;;;11.57;;
35562;SDS011;21665;40.108;18.302;2023-11-22T03:34:55;17.00;;;10.50;;
35562;SDS011;21665;40.108;18.302;2023-11-22T03:37:23;23.30;;;11.52;;
35562;SDS011;21665;40.108;18.302;2023-11-22T03:39:50;17.95;;;11.10;;
35562;SDS011;21665;40.108;18.302;2023-11-22T03:42:16;23.30;;;10.50;;
35562;SDS011;21665;40.108;18.302;2023-11-22T03:44:44;24.15;;;10.88;;
35562;SDS011;21665;40.108;18.302;2023-11-22T03:47:11;18.30;;;9.88;;
35562;SDS011;21665;40.108;18.302;2023-11-22T03:49:39;17.42;;;9.80;;
35562;SDS011;21665;40.108;18.302;2023-11-22T03:52:06;15.75;;;10.15;;
35562;SDS011;21665;40.108;18.302;2023-11-22T03:54:37;17.13;;;9.68;;
35562;SDS011;21665;40.108;18.302;2023-11-22T03:57:04;26.73;;;10.10;;
35562;SDS011;21665;40.108;18.302;2023-11-22T03:59:31;16.63;;;10.00;;
35562;SDS011;21665;40.108;18.302;2023-11-22T04:01:58;20.27;;;9.93;;
35562;SDS011;21665;40.108;18.302;2023-11-22T04:04:24;36.42;;;12.05;;
35562;SDS011;21665;40.108;18.302;2023-11-22T04:06:51;15.82;;;10.00;;
35562;SDS011;21665;40.108;18.302;2023-11-22T04:09:18;17.00;;;9.85;;
35562;SDS011;21665;40.108;18.302;2023-11-22T04:11:48;24.70;;;10.25;;
35562;SDS011;21665;40.108;18.302;2023-11-22T04:14:15;22.70;;;9.90;;
35562;SDS011;21665;40.108;18.302;2023-11-22T04:16:42;16.70;;;10.05;;
35562;SDS011;21665;40.108;18.302;2023-11-22T04:19:08;14.45;;;10.27;;
35562;SDS011;21665;40.108;18.302;2023-11-22T04:21:36;22.83;;;10.77;;
35562;SDS011;21665;40.108;18.302;2023-11-22T04:24:02;18.70;;;9.88;;
35562;SDS011;21665;40.108;18.302;2023-11-22T04:26:29;19.52;;;9.88;;
35562;SDS011;21665;40.108;18.302;2023-11-22T04:28:56;21.40;;;10.57;;
35562;SDS011;21665;40.108;18.302;2023-11-22T04:31:24;16.65;;;10.32;;
35562;SDS011;21665;40.108;18.302;2023-11-22T04:33:51;14.43;;;9.27;;
35562;SDS011;21665;40.108;18.302;2023-11-22T04:36:18;19.13;;;9.85;;
35562;SDS011;21665;40.108;18.302;2023-11-22T04:38:45;20.95;;;9.75;;
35562;SDS011;21665;40.108;18.302;2023-11-22T04:41:11;18.27;;;9.65;;
35562;SDS011;21665;40.108;18.302;2023-11-22T04:43:38;19.40;;;10.02;;
35562;SDS011;21665;40.108;18.302;2023-11-22T04:46:05;14.65;;;9.95;;
35562;SDS011;21665;40.108;18.302;2023-11-22T04:48:32;19.23;;;10.13;;
35562;SDS011;21665;40.108;18.302;2023-11-22T04:50:59;14.68;;;9.60;;
35562;SDS011;21665;40.108;18.302;2023-11-22T04:53:25;24.50;;;10.50;;
35562;SDS011;21665;40.108;18.302;2023-11-22T04:55:55;14.55;;;9.32;;
35562;SDS011;21665;40.108;18.302;2023-11-22T04:58:22;17.50;;;9.63;;
35562;SDS011;21665;40.108;18.302;2023-11-22T05:00:49;33.38;;;10.27;;
35562;SDS011;21665;40.108;18.302;2023-11-22T05:03:16;23.02;;;9.65;;
35562;SDS011;21665;40.108;18.302;2023-11-22T05:05:43;24.00;;;10.07;;
35562;SDS011;21665;40.108;18.302;2023-11-22T05:08:10;24.00;;;9.85;;
35562;SDS011;21665;40.108;18.302;2023-11-22T05:10:37;18.55;;;10.32;;
35562;SDS011;21665;40.108;18.302;2023-11-22T05:13:04;24.63;;;10.50;;
35562;SDS011;21665;40.108;18.302;2023-11-22T05:15:30;21.75;;;10.75;;
35562;SDS011;21665;40.108;18.302;2023-11-22T05:17:57;19.25;;;10.30;;
35562;SDS011;21665;40.108;18.302;2023-11-22T05:20:24;24.90;;;10.52;;
35562;SDS011;21665;40.108;18.302;2023-11-22T05:22:51;15.38;;;10.55;;
35562;SDS011;21665;40.108;18.302;2023-11-22T05:25:18;27.48;;;10.70;;
35562;SDS011;21665;40.108;18.302;2023-11-22T05:27:45;19.77;;;10.50;;
35562;SDS011;21665;40.108;18.302;2023-11-22T05:30:11;26.17;;;10.00;;
35562;SDS011;21665;40.108;18.302;2023-11-22T05:32:38;20.35;;;9.73;;
35562;SDS011;21665;40.108;18.302;2023-11-22T05:35:05;18.40;;;10.63;;
35562;SDS011;21665;40.108;18.302;2023-11-22T05:37:35;17.85;;;9.73;;
35562;SDS011;21665;40.108;18.302;2023-11-22T05:40:08;17.17;;;10.55;;
35562;SDS011;21665;40.108;18.302;2023-11-22T05:42:35;20.85;;;10.90;;
35562;SDS011;21665;40.108;18.302;2023-11-22T05:45:02;22.17;;;10.25;;
35562;SDS011;21665;40.108;18.302;2023-11-22T05:47:31;22.20;;;9.88;;
35562;SDS011;21665;40.108;18.302;2023-11-22T05:49:58;19.70;;;10.27;;
35562;SDS011;21665;40.108;18.302;2023-11-22T05:52:27;18.33;;;10.40;;
35562;SDS011;21665;40.108;18.302;2023-11-22T05:54:54;26.27;;;10.88;;
35562;SDS011;21665;40.108;18.302;2023-11-22T05:57:22;23.95;;;10.60;;
35562;SDS011;21665;40.108;18.302;2023-11-22T05:59:48;17.75;;;10.35;;
35562;SDS011;21665;40.108;18.302;2023-11-22T06:02:15;22.67;;;10.70;;
35562;SDS011;21665;40.108;18.302;2023-11-22T06:04:42;17.75;;;10.68;;
35562;SDS011;21665;40.108;18.302;2023-11-22T06:07:09;19.48;;;10.15;;
35562;SDS011;21665;40.108;18.302;2023-11-22T06:09:35;15.65;;;10.38;;
35562;SDS011;21665;40.108;18.302;2023-11-22T06:12:02;24.70;;;11.30;;
35562;SDS011;21665;40.108;18.302;2023-11-22T06:14:29;24.25;;;11.07;;
35562;SDS011;21665;40.108;18.302;2023-11-22T06:16:56;27.35;;;11.07;;
35562;SDS011;21665;40.108;18.302;2023-11-22T06:19:23;23.67;;;11.10;;
35562;SDS011;21665;40.108;18.302;2023-11-22T06:21:50;20.08;;;11.40;;
35562;SDS011;21665;40.108;18.302;2023-11-22T06:24:17;19.23;;;10.70;;
35562;SDS011;21665;40.108;18.302;2023-11-22T06:26:44;26.65;;;10.85;;
35562;SDS011;21665;40.108;18.302;2023-11-22T06:29:19;28.08;;;11.32;;
35562;SDS011;21665;40.108;18.302;2023-11-22T06:31:46;16.88;;;10.52;;
35562;SDS011;21665;40.108;18.302;2023-11-22T06:34:13;22.52;;;11.18;;
35562;SDS011;21665;40.108;18.302;2023-11-22T06:36:40;28.23;;;11.68;;
35562;SDS011;21665;40.108;18.302;2023-11-22T06:39:07;25.95;;;11.02;;
35562;SDS011;21665;40.108;18.302;2023-11-22T06:41:35;17.63;;;9.68;;
35562;SDS011;21665;40.108;18.302;2023-11-22T06:44:02;23.63;;;9.88;;
35562;SDS011;21665;40.108;18.302;2023-11-22T06:46:29;22.90;;;9.02;;
35562;SDS011;21665;40.108;18.302;2023-11-22T06:48:56;11.65;;;9.18;;
35562;SDS011;21665;40.108;18.302;2023-11-22T06:51:23;22.42;;;9.32;;
35562;SDS011;21665;40.108;18.302;2023-11-22T06:53:49;17.67;;;8.73;;
35562;SDS011;21665;40.108;18.302;2023-11-22T06:56:20;21.92;;;8.82;;
35562;SDS011;21665;40.108;18.302;2023-11-22T06:58:47;16.75;;;8.75;;
35562;SDS011;21665;40.108;18.302;2023-11-22T07:01:13;19.55;;;8.52;;
35562;SDS011;21665;40.108;18.302;2023-11-22T07:03:40;23.52;;;8.57;;
35562;SDS011;21665;40.108;18.302;2023-11-22T07:06:08;22.40;;;9.15;;
35562;SDS011;21665;40.108;18.302;2023-11-22T07:08:35;18.60;;;9.15;;
35562;SDS011;21665;40.108;18.302;2023-11-22T07:11:02;22.55;;;9.90;;
35562;SDS011;21665;40.108;18.302;2023-11-22T07:13:29;12.35;;;9.48;;
35562;SDS011;21665;40.108;18.302;2023-11-22T07:15:55;13.65;;;10.02;;
35562;SDS011;21665;40.108;18.302;2023-11-22T07:18:22;18.55;;;10.85;;
35562;SDS011;21665;40.108;18.302;2023-11-22T07:20:49;20.70;;;10.60;;
35562;SDS011;21665;40.108;18.302;2023-11-22T07:23:19;22.20;;;11.50;;
35562;SDS011;21665;40.108;18.302;2023-11-22T07:25:48;28.73;;;12.60;;
35562;SDS011;21665;40.108;18.302;2023-11-22T07:28:15;19.80;;;11.63;;
35562;SDS011;21665;40.108;18.302;2023-11-22T07:30:42;18.60;;;12.52;;
35562;SDS011;21665;40.108;18.302;2023-11-22T07:33:09;14.35;;;12.20;;
35562;SDS011;21665;40.108;18.302;2023-11-22T07:35:36;18.17;;;12.15;;
35562;SDS011;21665;40.108;18.302;2023-11-22T07:38:06;18.75;;;12.50;;
35562;SDS011;21665;40.108;18.302;2023-11-22T07:40:34;16.30;;;12.65;;
35562;SDS011;21665;40.108;18.302;2023-11-22T07:43:00;19.50;;;12.95;;
35562;SDS011;21665;40.108;18.302;2023-11-22T07:45:31;15.23;;;13.65;;
35562;SDS011;21665;40.108;18.302;2023-11-22T07:48:00;25.70;;;13.98;;
35562;SDS011;21665;40.108;18.302;2023-11-22T07:50:29;22.02;;;13.98;;
35562;SDS011;21665;40.108;18.302;2023-11-22T07:52:56;22.40;;;13.40;;
35562;SDS011;21665;40.108;18.302;2023-11-22T07:55:23;18.75;;;12.73;;
35562;SDS011;21665;40.108;18.302;2023-11-22T07:57:50;18.05;;;12.73;;
35562;SDS011;21665;40.108;18.302;2023-11-22T08:00:17;16.15;;;11.80;;
35562;SDS011;21665;40.108;18.302;2023-11-22T08:02:48;19.25;;;12.57;;
35562;SDS011;21665;40.108;18.302;2023-11-22T08:05:15;19.05;;;11.80;;
35562;SDS011;21665;40.108;18.302;2023-11-22T08:07:43;15.60;;;12.85;;
35562;SDS011;21665;40.108;18.302;2023-11-22T08:10:12;21.23;;;12.32;;
35562;SDS011;21665;40.108;18.302;2023-11-22T08:12:45;15.43;;;11.40;;
35562;SDS011;21665;40.108;18.302;2023-11-22T08:15:14;20.08;;;11.63;;
35562;SDS011;21665;40.108;18.302;2023-11-22T08:17:41;13.68;;;11.30;;
35562;SDS011;21665;40.108;18.302;2023-11-22T08:20:09;25.05;;;12.13;;
35562;SDS011;21665;40.108;18.302;2023-11-22T08:22:46;20.73;;;11.25;;
35562;SDS011;21665;40.108;18.302;2023-11-22T08:25:15;22.05;;;11.25;;
35562;SDS011;21665;40.108;18.302;2023-11-22T08:27:42;18.27;;;11.35;;
35562;SDS011;21665;40.108;18.302;2023-11-22T08:30:09;20.48;;;12.50;;
35562;SDS011;21665;40.108;18.302;2023-11-22T08:32:39;22.20;;;13.93;;
35562;SDS011;21665;40.108;18.302;2023-11-22T08:35:07;22.88;;;14.18;;
35562;SDS011;21665;40.108;18.302;2023-11-22T08:37:34;18.20;;;12.77;;
35562;SDS011;21665;40.108;18.302;2023-11-22T08:40:06;16.35;;;11.75;;
35562;SDS011;21665;40.108;18.302;2023-11-22T08:42:36;20.33;;;13.73;;
35562;SDS011;21665;40.108;18.302;2023-11-22T08:45:03;19.63;;;13.13;;
35562;SDS011;21665;40.108;18.302;2023-11-22T08:47:30;22.48;;;13.38;;
35562;SDS011;21665;40.108;18.302;2023-11-22T08:49:57;21.70;;;12.77;;
35562;SDS011;21665;40.108;18.302;2023-11-22T08:52:27;27.85;;;15.55;;
35562;SDS011;21665;40.108;18.302;2023-11-22T08:55:02;25.00;;;15.98;;
35562;SDS011;21665;40.108;18.302;2023-11-22T08:57:29;20.77;;;12.52;;
35562;SDS011;21665;40.108;18.302;2023-11-22T08:59:56;24.65;;;11.85;;
35562;SDS011;21665;40.108;18.302;2023-11-22T09:02:27;16.65;;;12.27;;
35562;SDS011;21665;40.108;18.302;2023-11-22T09:04:54;13.27;;;11.98;;
35562;SDS011;21665;40.108;18.302;2023-11-22T09:07:20;27.45;;;17.42;;
35562;SDS011;21665;40.108;18.302;2023-11-22T09:09:49;21.50;;;16.77;;
35562;SDS011;21665;40.108;18.302;2023-11-22T09:12:17;25.05;;;15.73;;
35562;SDS011;21665;40.108;18.302;2023-11-22T09:14:45;23.40;;;13.88;;
35562;SDS011;21665;40.108;18.302;2023-11-22T09:17:12;16.50;;;13.98;;
35562;SDS011;21665;40.108;18.302;2023-11-22T09:19:39;17.50;;;14.63;;
35562;SDS011;21665;40.108;18.302;2023-11-22T09:22:06;18.60;;;15.75;;
35562;SDS011;21665;40.108;18.302;2023-11-22T09:24:34;18.35;;;15.35;;
35562;SDS011;21665;40.108;18.302;2023-11-22T09:27:03;18.75;;;14.95;;
35562;SDS011;21665;40.108;18.302;2023-11-22T09:29:36;18.77;;;16.67;;
35562;SDS011;21665;40.108;18.302;2023-11-22T09:32:02;17.92;;;15.80;;
35562;SDS011;21665;40.108;18.302;2023-11-22T09:34:31;19.02;;;15.77;;
35562;SDS011;21665;40.108;18.302;2023-11-22T09:37:04;17.17;;;15.52;;
35562;SDS011;21665;40.108;18.302;2023-11-22T09:39:38;20.23;;;15.85;;
35562;SDS011;21665;40.108;18.302;2023-11-22T09:42:05;17.33;;;15.60;;
35562;SDS011;21665;40.108;18.302;2023-11-22T09:44:32;18.67;;;16.75;;
35562;SDS011;21665;40.108;18.302;2023-11-22T09:47:07;20.83;;;16.65;;
35562;SDS011;21665;40.108;18.302;2023-11-22T09:49:50;28.98;;;20.98;;
35562;SDS011;21665;40.108;18.302;2023-11-22T09:52:19;21.10;;;17.73;;
35562;SDS011;21665;40.108;18.302;2023-11-22T09:54:48;23.17;;;17.48;;
35562;SDS011;21665;40.108;18.302;2023-11-22T09:57:17;18.80;;;16.83;;
35562;SDS011;21665;40.108;18.302;2023-11-22T09:59:45;17.60;;;16.20;;
35562;SDS011;21665;40.108;18.302;2023-11-22T10:02:15;18.20;;;16.52;;
35562;SDS011;21665;40.108;18.302;2023-11-22T10:04:42;18.85;;;17.08;;
35562;SDS011;21665;40.108;18.302;2023-11-22T10:07:09;19.02;;;16.85;;
35562;SDS011;21665;40.108;18.302;2023-11-22T10:09:36;18.52;;;17.02;;
35562;SDS011;21665;40.108;18.302;2023-11-22T10:12:03;18.58;;;17.13;;
35562;SDS011;21665;40.108;18.302;2023-11-22T10:14:33;20.00;;;18.23;;
35562;SDS011;21665;40.108;18.302;2023-11-22T10:17:00;20.27;;;18.50;;
35562;SDS011;21665;40.108;18.302;2023-11-22T10:19:27;20.60;;;18.70;;
35562;SDS011;21665;40.108;18.302;2023-11-22T10:22:07;22.35;;;20.15;;
35562;SDS011;21665;40.108;18.302;2023-11-22T10:24:35;21.02;;;19.20;;
35562;SDS011;21665;40.108;18.302;2023-11-22T10:27:02;24.80;;;21.58;;
35562;SDS011;21665;40.108;18.302;2023-11-22T10:29:29;21.50;;;19.45;;
35562;SDS011;21665;40.108;18.302;2023-11-22T10:31:55;22.20;;;20.15;;
35562;SDS011;21665;40.108;18.302;2023-11-22T10:34:23;22.92;;;20.30;;
35562;SDS011;21665;40.108;18.302;2023-11-22T10:36:51;21.45;;;19.42;;
35562;SDS011;21665;40.108;18.302;2023-11-22T10:39:20;20.50;;;18.70;;
35562;SDS011;21665;40.108;18.302;2023-11-22T10:41:49;22.52;;;20.33;;
35562;SDS011;21665;40.108;18.302;2023-11-22T10:44:18;20.70;;;17.92;;
35562;SDS011;21665;40.108;18.302;2023-11-22T10:46:47;20.60;;;17.92;;
35562;SDS011;21665;40.108;18.302;2023-11-22T10:49:16;18.48;;;16.95;;
35562;SDS011;21665;40.108;18.302;2023-11-22T10:51:42;22.02;;;18.60;;
35562;SDS011;21665;40.108;18.302;2023-11-22T10:54:16;22.60;;;20.20;;
35562;SDS011;21665;40.108;18.302;2023-11-22T10:56:44;22.45;;;20.33;;
35562;SDS011;21665;40.108;18.302;2023-11-22T10:59:16;21.13;;;19.17;;
35562;SDS011;21665;40.108;18.302;2023-11-22T11:01:49;20.02;;;18.30;;
35562;SDS011;21665;40.108;18.302;2023-11-22T11:06:54;25.92;;;18.25;;
35562;SDS011;21665;40.108;18.302;2023-11-22T11:09:22;19.92;;;17.65;;
35562;SDS011;21665;40.108;18.302;2023-11-22T11:11:58;18.25;;;16.75;;
35562;SDS011;21665;40.108;18.302;2023-11-22T11:14:25;22.23;;;17.42;;
35562;SDS011;21665;40.108;18.302;2023-11-22T11:16:53;19.65;;;17.80;;
35562;SDS011;21665;40.108;18.302;2023-11-22T11:19:24;18.63;;;17.20;;
35562;SDS011;21665;40.108;18.302;2023-11-22T11:21:51;19.65;;;18.10;;
35562;SDS011;21665;40.108;18.302;2023-11-22T11:24:18;19.63;;;17.58;;
35562;SDS011;21665;40.108;18.302;2023-11-22T11:26:49;20.52;;;17.98;;
35562;SDS011;21665;40.108;18.302;2023-11-22T11:29:33;19.25;;;17.38;;
35562;SDS011;21665;40.108;18.302;2023-11-22T11:32:03;20.45;;;17.10;;
35562;SDS011;21665;40.108;18.302;2023-11-22T11:34:29;18.52;;;16.70;;
35562;SDS011;21665;40.108;18.302;2023-11-22T11:36:56;18.98;;;16.92;;
35562;SDS011;21665;40.108;18.302;2023-11-22T11:39:26;18.35;;;16.63;;
35562;SDS011;21665;40.108;18.302;2023-11-22T11:42:12;21.92;;;17.75;;
35562;SDS011;21665;40.108;18.302;2023-11-22T11:44:50;26.20;;;21.23;;
35562;SDS011;21665;40.108;18.302;2023-11-22T11:47:29;21.15;;;18.73;;
35562;SDS011;21665;40.108;18.302;2023-11-22T11:49:55;20.98;;;18.80;;
35562;SDS011;21665;40.108;18.302;2023-11-22T11:52:22;20.15;;;18.20;;
35562;SDS011;21665;40.108;18.302;2023-11-22T11:54:50;20.40;;;18.60;;
35562;SDS011;21665;40.108;18.302;2023-11-22T11:57:21;19.92;;;18.13;;
35562;SDS011;21665;40.108;18.302;2023-11-22T12:00:00;19.65;;;18.05;;
35562;SDS011;21665;40.108;18.302;2023-11-22T12:02:37;19.50;;;17.63;;
35562;SDS011;21665;40.108;18.302;2023-11-22T12:05:03;21.50;;;17.17;;
35562;SDS011;21665;40.108;18.302;2023-11-22T12:07:37;18.52;;;16.63;;
35562;SDS011;21665;40.108;18.302;2023-11-22T12:10:03;18.77;;;17.23;;
35562;SDS011;21665;40.108;18.302;2023-11-22T12:12:34;18.58;;;16.67;;
35562;SDS011;21665;40.108;18.302;2023-11-22T12:15:00;20.55;;;16.73;;
35562;SDS011;21665;40.108;18.302;2023-11-22T12:17:27;19.02;;;16.63;;
35562;SDS011;21665;40.108;18.302;2023-11-22T12:19:55;17.67;;;16.30;;
35562;SDS011;21665;40.108;18.302;2023-11-22T12:22:47;18.90;;;16.88;;
35562;SDS011;21665;40.108;18.302;2023-11-22T12:25:14;18.63;;;17.02;;
35562;SDS011;21665;40.108;18.302;2023-11-22T12:27:42;19.25;;;17.55;;
35562;SDS011;21665;40.108;18.302;2023-11-22T12:30:09;19.52;;;18.33;;
35562;SDS011;21665;40.108;18.302;2023-11-22T12:35:33;21.33;;;19.88;;
35562;SDS011;21665;40.108;18.302;2023-11-22T12:38:00;21.33;;;19.85;;
35562;SDS011;21665;40.108;18.302;2023-11-22T12:40:29;20.80;;;19.35;;
35562;SDS011;21665;40.108;18.302;2023-11-22T12:43:00;21.83;;;20.10;;
35562;SDS011;21665;40.108;18.302;2023-11-22T12:45:28;21.42;;;19.92;;
35562;SDS011;21665;40.108;18.302;2023-11-22T12:47:55;21.65;;;20.00;;
35562;SDS011;21665;40.108;18.302;2023-11-22T12:50:37;21.20;;;19.60;;
35562;SDS011;21665;40.108;18.302;2023-11-22T12:53:14;20.48;;;19.13;;
35562;SDS011;21665;40.108;18.302;2023-11-22T12:58:12;20.27;;;18.52;;
35562;SDS011;21665;40.108;18.302;2023-11-22T13:00:40;20.10;;;18.52;;
35562;SDS011;21665;40.108;18.302;2023-11-22T13:03:11;19.23;;;17.40;;
35562;SDS011;21665;40.108;18.302;2023-11-22T13:05:38;19.08;;;17.40;;
35562;SDS011;21665;40.108;18.302;2023-11-22T13:08:10;18.92;;;17.25;;
35562;SDS011;21665;40.108;18.302;2023-11-22T13:10:43;18.40;;;16.57;;
35562;SDS011;21665;40.108;18.302;2023-11-22T13:13:13;16.35;;;15.02;;
35562;SDS011;21665;40.108;18.302;2023-11-22T13:15:40;19.77;;;14.07;;
35562;SDS011;21665;40.108;18.302;2023-11-22T13:18:07;15.02;;;12.55;;
35562;SDS011;21665;40.108;18.302;2023-11-22T13:20:34;12.73;;;11.57;;
35562;SDS011;21665;40.108;18.302;2023-11-22T13:23:01;13.63;;;11.50;;
35562;SDS011;21665;40.108;18.302;2023-11-22T13:25:28;14.05;;;12.05;;
35562;SDS011;21665;40.108;18.302;2023-11-22T13:27:55;12.02;;;10.85;;
35562;SDS011;21665;40.108;18.302;2023-11-22T13:30:22;18.88;;;11.38;;
35562;SDS011;21665;40.108;18.302;2023-11-22T13:32:50;14.15;;;12.27;;
35562;SDS011;21665;40.108;18.302;2023-11-22T13:35:18;16.90;;;10.10;;
35562;SDS011;21665;40.108;18.302;2023-11-22T13:37:45;14.90;;;9.73;;
35562;SDS011;21665;40.108;18.302;2023-11-22T13:40:17;15.90;;;10.18;;
35562;SDS011;21665;40.108;18.302;2023-11-22T13:42:49;16.33;;;9.70;;
35562;SDS011;21665;40.108;18.302;2023-11-22T13:45:18;20.10;;;10.93;;
35562;SDS011;21665;40.108;18.302;2023-11-22T13:47:46;16.42;;;10.65;;
35562;SDS011;21665;40.108;18.302;2023-11-22T13:50:13;19.73;;;12.30;;
35562;SDS011;21665;40.108;18.302;2023-11-22T13:52:45;14.75;;;12.13;;
35562;SDS011;21665;40.108;18.302;2023-11-22T13:55:12;18.70;;;13.00;;
35562;SDS011;21665;40.108;18.302;2023-11-22T13:57:38;16.13;;;12.43;;
35562;SDS011;21665;40.108;18.302;2023-11-22T14:00:06;14.15;;;12.68;;
35562;SDS011;21665;40.108;18.302;2023-11-22T14:02:41;16.60;;;13.15;;
35562;SDS011;21665;40.108;18.302;2023-11-22T14:05:07;17.65;;;12.95;;
35562;SDS011;21665;40.108;18.302;2023-11-22T14:07:35;13.35;;;12.02;;
35562;SDS011;21665;40.108;18.302;2023-11-22T14:10:04;18.63;;;11.85;;
35562;SDS011;21665;40.108;18.302;2023-11-22T14:12:32;12.43;;;11.35;;
35562;SDS011;21665;40.108;18.302;2023-11-22T14:14:59;15.13;;;12.43;;
35562;SDS011;21665;40.108;18.302;2023-11-22T14:17:27;16.08;;;11.80;;
35562;SDS011;21665;40.108;18.302;2023-11-22T14:19:55;13.10;;;12.07;;
35562;SDS011;21665;40.108;18.302;2023-11-22T14:22:22;13.80;;;12.07;;
35562;SDS011;21665;40.108;18.302;2023-11-22T14:24:50;17.20;;;13.20;;